D/T METAR WX W/DIR W/SPE G/SPE TEMP DEWP
25/02/20 14:20 EGGW 251420Z AUTO 24015G25KT 9999 SCT024/// //////TCU 07/02 Q0996 WSW (240°) 17.3mph 28.8mph 7°C 2°C
25/02/20 13:50 EGGW 251350Z AUTO 24021KT 9999 SCT024 06/02 Q0997 WSW (240°) 24.2mph 6°C 2°C
25/02/20 13:20 EGGW 251320Z AUTO 24015KT 9999 SCT025 BKN031 06/02 Q0997 WSW (240°) 17.3mph 6°C 2°C
25/02/20 12:50 EGGW 251250Z AUTO 25016KT 9999 FEW027 06/01 Q0998 WSW (250°) 18.4mph 6°C 1°C
25/02/20 12:20 EGGW 251220Z AUTO 24016KT 9999 SCT025 07/02 Q0998 WSW (240°) 18.4mph 7°C 2°C
25/02/20 11:50 EGGW 251150Z AUTO 24016KT 9999 FEW025 06/02 Q0998 WSW (240°) 18.4mph 6°C 2°C
25/02/20 11:20 EGGW 251120Z AUTO 24017KT 9999 FEW023 06/02 Q0999 WSW (240°) 19.6mph 6°C 2°C
25/02/20 10:50 EGGW 251050Z AUTO 24017KT 9999 SCT021 06/02 Q0999 WSW (240°) 19.6mph 6°C 2°C
25/02/20 10:20 EGGW 251020Z AUTO 25017KT 9999 SCT020 06/02 Q0999 WSW (250°) 19.6mph 6°C 2°C
25/02/20 09:50 EGGW 250950Z AUTO 25017KT 9999 NCD 06/03 Q0999 WSW (250°) 19.6mph 6°C 3°C
25/02/20 09:20 EGGW 250920Z AUTO 25021KT 9999 BKN013 05/03 Q1000 WSW (250°) 24.2mph 5°C 3°C
25/02/20 08:50 EGGW 250850Z AUTO 25016KT 9999 BKN014 OVC028 05/03 Q1000 WSW (250°) 18.4mph 5°C 3°C
25/02/20 08:20 EGGW 250820Z AUTO 23012KT 9999 SCT015 BKN025 04/03 Q1000 SW (230°) 13.8mph 4°C 3°C
25/02/20 07:50 EGGW 250750Z AUTO 23011KT 9999 FEW016 SCT035 04/02 Q1001 SW (230°) 12.7mph 4°C 2°C
25/02/20 07:20 EGGW 250720Z AUTO 23012KT 9999 NCD 04/02 Q1001 SW (230°) 13.8mph 4°C 2°C
25/02/20 06:50 EGGW 250650Z AUTO 23014KT 9999 NCD 04/02 Q1001 SW (230°) 16.1mph 4°C 2°C
25/02/20 06:20 EGGW 250620Z AUTO 24011KT 9999 NCD 03/01 Q1001 WSW (240°) 12.7mph 3°C 1°C
25/02/20 05:50 EGGW 250550Z AUTO 24014KT 9999 NCD 03/01 Q1002 WSW (240°) 16.1mph 3°C 1°C
25/02/20 05:20 EGGW 250520Z AUTO 25012KT 9999 NCD 03/01 Q1002 WSW (250°) 13.8mph 3°C 1°C
25/02/20 04:50 EGGW 250450Z AUTO 24012KT 9999 NCD 03/01 Q1002 WSW (240°) 13.8mph 3°C 1°C
25/02/20 04:20 EGGW 250420Z AUTO 25012KT 9999 NCD 03/01 Q1002 WSW (250°) 13.8mph 3°C 1°C
25/02/20 03:50 EGGW 250350Z AUTO 25012KT 9999 NCD 03/01 Q1002 WSW (250°) 13.8mph 3°C 1°C
25/02/20 03:20 EGGW 250320Z AUTO 25012KT 9999 NCD 04/02 Q1002 WSW (250°) 13.8mph 4°C 2°C
25/02/20 02:50 EGGW 250250Z AUTO 25013KT 9999 NCD 04/02 Q1003 WSW (250°) 15.0mph 4°C 2°C
25/02/20 02:20 EGGW 250220Z AUTO 24014KT 9999 NCD 04/03 Q1003 WSW (240°) 16.1mph 4°C 3°C
25/02/20 01:50 EGGW 250150Z AUTO 24012KT 9999 NCD 05/03 Q1003 WSW (240°) 13.8mph 5°C 3°C
25/02/20 01:20 EGGW 250120Z AUTO 25013KT 9999 NCD 05/03 Q1003 WSW (250°) 15.0mph 5°C 3°C
25/02/20 00:50 EGGW 250050Z AUTO 25014KT 9999 NCD 05/03 Q1003 WSW (250°) 16.1mph 5°C 3°C
25/02/20 00:20 EGGW 250020Z AUTO 24013KT 9999 FEW048 05/03 Q1003 WSW (240°) 15.0mph 5°C 3°C
24/02/20 23:20 EGGW 242320Z AUTO 25010KT 9999 NCD 05/01 Q1004 WSW (250°) 11.5mph 5°C 1°C
24/02/20 22:50 EGGW 242250Z AUTO 26014KT 9999 NCD 05/01 Q1004 W (260°) 16.1mph 5°C 1°C
24/02/20 22:20 EGGW 242220Z AUTO 26015KT 9999 NCD 06/01 Q1004 W (260°) 17.3mph 6°C 1°C
24/02/20 21:50 EGGW 242150Z AUTO 26014KT 9999 NCD 06/01 Q1004 W (260°) 16.1mph 6°C 1°C
24/02/20 21:20 EGGW 242120Z AUTO 28017KT 9999 FEW037 07/01 Q1004 W (280°) 19.6mph 7°C 1°C
24/02/20 20:50 EGGW 242050Z AUTO 27016KT 9999 NCD 07/03 Q1004 W (270°) 18.4mph 7°C 3°C
24/02/20 20:20 EGGW 242020Z AUTO 27018G28KT 9999 FEW019 08/05 Q1003 W (270°) 20.7mph 32.2mph 8°C 5°C
24/02/20 19:50 EGGW 241950Z AUTO 25019KT 9999 BKN015 BKN023 08/06 Q1003 WSW (250°) 21.9mph 8°C 6°C
24/02/20 19:20 EGGW 241920Z AUTO 24018KT 9999 FEW016 SCT025 08/06 Q1003 WSW (240°) 20.7mph 8°C 6°C
24/02/20 18:50 EGGW 241850Z AUTO 24020KT 9999 NCD 09/07 Q1002 WSW (240°) 23.0mph 9°C 7°C
24/02/20 18:20 EGGW 241820Z AUTO 25021KT 9999 BKN041 09/07 Q1002 WSW (250°) 24.2mph 9°C 7°C
24/02/20 17:50 EGGW 241750Z AUTO 25024KT 9999 FEW021 SCT030 BKN040 09/07 Q1002 WSW (250°) 27.6mph 9°C 7°C
24/02/20 17:20 EGGW 241720Z AUTO 25029G42KT 9999 BKN020 OVC028 10/07 Q1002 WSW (250°) 33.4mph 48.3mph 10°C 7°C
24/02/20 16:50 EGGW 241650Z AUTO 25025G35KT 9999 BKN016 OVC031 11/08 Q1002 WSW (250°) 28.8mph 40.3mph 11°C 8°C
24/02/20 16:20 EGGW 241620Z AUTO 25023KT 9999 BKN013 OVC022 11/09 Q1002 WSW (250°) 26.5mph 11°C 9°C
24/02/20 15:50 EGGW 241550Z AUTO 24021KT 9999 BKN013 OVC019 11/09 Q1002 WSW (240°) 24.2mph 11°C 9°C
24/02/20 15:20 EGGW 241520Z AUTO 23018G28KT 9999 BKN011 OVC017 11/09 Q1002 SW (230°) 20.7mph 32.2mph 11°C 9°C
24/02/20 14:50 EGGW 241450Z AUTO 22019G30KT 9000 OVC010 11/09 Q1002 SW (220°) 21.9mph 34.5mph 11°C 9°C
24/02/20 14:20 EGGW 241420Z AUTO 22017KT 9999 BKN010 OVC015 11/09 Q1003 SW (220°) 19.6mph 11°C 9°C